sensor_id;sensor_type;location;lat;lon;timestamp;pressure;altitude;pressure_sealevel;temperature;humidity
56270;BME280;42176;43.240;27.880;2023-07-08T00:00:28;99841.38;;;22.48;100.00
56270;BME280;42176;43.240;27.880;2023-07-08T00:02:53;99842.44;;;22.34;100.00
56270;BME280;42176;43.240;27.880;2023-07-08T00:05:20;99836.50;;;22.29;100.00
56270;BME280;42176;43.240;27.880;2023-07-08T00:07:46;99835.91;;;22.25;100.00
56270;BME280;42176;43.240;27.880;2023-07-08T00:10:23;99842.72;;;22.18;100.00
56270;BME280;42176;43.240;27.880;2023-07-08T00:12:51;99841.69;;;22.08;100.00
56270;BME280;42176;43.240;27.880;2023-07-08T00:15:18;99839.22;;;22.04;100.00
56270;BME280;42176;43.240;27.880;2023-07-08T00:17:44;99827.28;;;21.96;100.00
56270;BME280;42176;43.240;27.880;2023-07-08T00:20:14;99835.50;;;21.94;100.00
56270;BME280;42176;43.240;27.880;2023-07-08T00:22:42;99835.72;;;21.91;100.00
56270;BME280;42176;43.240;27.880;2023-07-08T00:25:14;99827.09;;;21.86;100.00
56270;BME280;42176;43.240;27.880;2023-07-08T00:27:40;99841.97;;;21.92;100.00
56270;BME280;42176;43.240;27.880;2023-07-08T00:30:44;99841.34;;;21.88;100.00
56270;BME280;42176;43.240;27.880;2023-07-08T00:33:10;99839.84;;;21.84;100.00
56270;BME280;42176;43.240;27.880;2023-07-08T00:35:36;99840.72;;;21.84;100.00
56270;BME280;42176;43.240;27.880;2023-07-08T00:38:21;99853.31;;;21.84;100.00
56270;BME280;42176;43.240;27.880;2023-07-08T00:41:04;99859.69;;;21.83;100.00
56270;BME280;42176;43.240;27.880;2023-07-08T00:43:39;99851.31;;;21.74;100.00
56270;BME280;42176;43.240;27.880;2023-07-08T00:48:39;99855.06;;;21.85;100.00
56270;BME280;42176;43.240;27.880;2023-07-08T00:51:08;99843.75;;;21.80;100.00
56270;BME280;42176;43.240;27.880;2023-07-08T00:53:36;99857.75;;;21.85;100.00
56270;BME280;42176;43.240;27.880;2023-07-08T00:56:08;99849.78;;;21.83;100.00
56270;BME280;42176;43.240;27.880;2023-07-08T00:58:40;99854.84;;;21.88;100.00
56270;BME280;42176;43.240;27.880;2023-07-08T01:01:07;99853.84;;;21.89;100.00
56270;BME280;42176;43.240;27.880;2023-07-08T01:03:40;99852.56;;;21.82;100.00
56270;BME280;42176;43.240;27.880;2023-07-08T01:06:08;99843.44;;;21.71;100.00
56270;BME280;42176;43.240;27.880;2023-07-08T01:08:34;99846.13;;;21.58;100.00
56270;BME280;42176;43.240;27.880;2023-07-08T01:11:01;99831.19;;;21.54;100.00
56270;BME280;42176;43.240;27.880;2023-07-08T01:13:32;99840.75;;;21.58;100.00
56270;BME280;42176;43.240;27.880;2023-07-08T01:15:59;99834.94;;;21.52;100.00
56270;BME280;42176;43.240;27.880;2023-07-08T01:18:25;99833.78;;;21.43;100.00
56270;BME280;42176;43.240;27.880;2023-07-08T01:20:50;99832.16;;;21.40;100.00
56270;BME280;42176;43.240;27.880;2023-07-08T01:23:17;99833.03;;;21.41;100.00
56270;BME280;42176;43.240;27.880;2023-07-08T01:25:44;99834.22;;;21.37;100.00
56270;BME280;42176;43.240;27.880;2023-07-08T01:28:10;99839.97;;;21.32;100.00
56270;BME280;42176;43.240;27.880;2023-07-08T01:30:36;99833.69;;;21.19;100.00
56270;BME280;42176;43.240;27.880;2023-07-08T01:33:05;99842.78;;;21.18;100.00
56270;BME280;42176;43.240;27.880;2023-07-08T01:35:32;99849.69;;;21.09;100.00
56270;BME280;42176;43.240;27.880;2023-07-08T01:38:00;99854.41;;;21.05;100.00
56270;BME280;42176;43.240;27.880;2023-07-08T01:42:53;99858.94;;;20.92;100.00
56270;BME280;42176;43.240;27.880;2023-07-08T01:45:21;99865.50;;;20.88;100.00
56270;BME280;42176;43.240;27.880;2023-07-08T01:48:00;99853.31;;;20.82;100.00
56270;BME280;42176;43.240;27.880;2023-07-08T01:50:29;99850.97;;;20.77;100.00
56270;BME280;42176;43.240;27.880;2023-07-08T01:52:58;99847.03;;;20.68;100.00
56270;BME280;42176;43.240;27.880;2023-07-08T01:55:25;99838.63;;;20.60;100.00
56270;BME280;42176;43.240;27.880;2023-07-08T01:57:51;99831.53;;;20.59;100.00
56270;BME280;42176;43.240;27.880;2023-07-08T02:02:55;99836.03;;;20.59;100.00
56270;BME280;42176;43.240;27.880;2023-07-08T02:05:20;99836.47;;;20.52;100.00
56270;BME280;42176;43.240;27.880;2023-07-08T02:07:47;99826.56;;;20.53;100.00
56270;BME280;42176;43.240;27.880;2023-07-08T02:10:12;99839.03;;;20.54;100.00
56270;BME280;42176;43.240;27.880;2023-07-08T02:12:38;99843.78;;;20.50;100.00
56270;BME280;42176;43.240;27.880;2023-07-08T02:15:05;99850.91;;;20.51;100.00
56270;BME280;42176;43.240;27.880;2023-07-08T02:17:31;99845.59;;;20.50;100.00
56270;BME280;42176;43.240;27.880;2023-07-08T02:19:56;99848.66;;;20.58;100.00
56270;BME280;42176;43.240;27.880;2023-07-08T02:22:22;99816.66;;;20.53;100.00
56270;BME280;42176;43.240;27.880;2023-07-08T02:24:47;99844.88;;;20.61;100.00
56270;BME280;42176;43.240;27.880;2023-07-08T02:27:13;99836.22;;;20.56;100.00
56270;BME280;42176;43.240;27.880;2023-07-08T02:29:39;99834.22;;;20.59;100.00
56270;BME280;42176;43.240;27.880;2023-07-08T02:32:05;99825.06;;;20.62;100.00
56270;BME280;42176;43.240;27.880;2023-07-08T02:34:30;99827.19;;;20.57;100.00
56270;BME280;42176;43.240;27.880;2023-07-08T02:36:56;99812.56;;;20.61;100.00
56270;BME280;42176;43.240;27.880;2023-07-08T02:39:22;99828.91;;;20.58;100.00
56270;BME280;42176;43.240;27.880;2023-07-08T02:41:48;99814.69;;;20.56;100.00
56270;BME280;42176;43.240;27.880;2023-07-08T02:44:13;99812.75;;;20.58;100.00
56270;BME280;42176;43.240;27.880;2023-07-08T02:46:39;99811.03;;;20.57;100.00
56270;BME280;42176;43.240;27.880;2023-07-08T02:49:04;99806.41;;;20.59;100.00
56270;BME280;42176;43.240;27.880;2023-07-08T02:51:31;99816.22;;;20.60;100.00
56270;BME280;42176;43.240;27.880;2023-07-08T02:53:56;99795.75;;;20.57;100.00
56270;BME280;42176;43.240;27.880;2023-07-08T02:56:21;99830.84;;;20.56;100.00
56270;BME280;42176;43.240;27.880;2023-07-08T02:58:48;99796.84;;;20.54;100.00
56270;BME280;42176;43.240;27.880;2023-07-08T03:01:13;99817.38;;;20.56;100.00
56270;BME280;42176;43.240;27.880;2023-07-08T03:03:43;99816.22;;;20.60;100.00
56270;BME280;42176;43.240;27.880;2023-07-08T03:06:09;99779.06;;;20.39;100.00
56270;BME280;42176;43.240;27.880;2023-07-08T03:08:34;99812.56;;;20.61;100.00
56270;BME280;42176;43.240;27.880;2023-07-08T03:11:01;99789.50;;;20.57;100.00
56270;BME280;42176;43.240;27.880;2023-07-08T03:13:29;99768.50;;;20.49;100.00
56270;BME280;42176;43.240;27.880;2023-07-08T03:15:55;99805.00;;;20.53;100.00
56270;BME280;42176;43.240;27.880;2023-07-08T03:18:22;99814.81;;;20.54;100.00
56270;BME280;42176;43.240;27.880;2023-07-08T03:20:49;99848.66;;;20.58;100.00
56270;BME280;42176;43.240;27.880;2023-07-08T03:23:15;99810.41;;;20.53;100.00
56270;BME280;42176;43.240;27.880;2023-07-08T03:25:40;99831.94;;;20.53;100.00
56270;BME280;42176;43.240;27.880;2023-07-08T03:28:06;99809.00;;;20.47;100.00
56270;BME280;42176;43.240;27.880;2023-07-08T03:30:33;99795.53;;;20.47;100.00
56270;BME280;42176;43.240;27.880;2023-07-08T03:32:59;99810.16;;;20.43;100.00
56270;BME280;42176;43.240;27.880;2023-07-08T03:35:25;99790.34;;;20.44;100.00
56270;BME280;42176;43.240;27.880;2023-07-08T03:37:52;99790.91;;;20.49;100.00
56270;BME280;42176;43.240;27.880;2023-07-08T03:40:17;99820.31;;;20.52;100.00
56270;BME280;42176;43.240;27.880;2023-07-08T03:42:43;99809.22;;;20.57;100.00
56270;BME280;42176;43.240;27.880;2023-07-08T03:45:08;99809.88;;;20.61;100.00
56270;BME280;42176;43.240;27.880;2023-07-08T03:47:34;99819.66;;;20.62;100.00
56270;BME280;42176;43.240;27.880;2023-07-08T03:49:59;99808.69;;;20.65;100.00
56270;BME280;42176;43.240;27.880;2023-07-08T03:52:25;99807.72;;;20.66;100.00
56270;BME280;42176;43.240;27.880;2023-07-08T03:54:50;99805.78;;;20.68;100.00
56270;BME280;42176;43.240;27.880;2023-07-08T03:57:16;99818.44;;;20.80;100.00
56270;BME280;42176;43.240;27.880;2023-07-08T03:59:41;99832.53;;;20.84;100.00
56270;BME280;42176;43.240;27.880;2023-07-08T04:02:11;99829.00;;;20.83;100.00
56270;BME280;42176;43.240;27.880;2023-07-08T04:04:37;99846.66;;;20.88;100.00
56270;BME280;42176;43.240;27.880;2023-07-08T04:07:04;99829.31;;;20.92;100.00
56270;BME280;42176;43.240;27.880;2023-07-08T04:09:29;99824.97;;;21.02;100.00
56270;BME280;42176;43.240;27.880;2023-07-08T04:11:54;99837.06;;;21.09;100.00
56270;BME280;42176;43.240;27.880;2023-07-08T04:14:20;99833.06;;;21.15;100.00
56270;BME280;42176;43.240;27.880;2023-07-08T04:16:58;99821.81;;;21.34;100.00
56270;BME280;42176;43.240;27.880;2023-07-08T04:19:26;99840.50;;;21.87;100.00
56270;BME280;42176;43.240;27.880;2023-07-08T04:21:52;99847.41;;;22.27;100.00
56270;BME280;42176;43.240;27.880;2023-07-08T04:24:18;99840.00;;;22.78;100.00
56270;BME280;42176;43.240;27.880;2023-07-08T04:26:45;99842.78;;;23.35;97.05
56270;BME280;42176;43.240;27.880;2023-07-08T04:29:19;99842.97;;;22.86;99.08
56270;BME280;42176;43.240;27.880;2023-07-08T04:31:45;99836.53;;;22.64;100.00
56270;BME280;42176;43.240;27.880;2023-07-08T04:34:11;99848.81;;;22.57;100.00
56270;BME280;42176;43.240;27.880;2023-07-08T04:36:37;99854.78;;;22.25;100.00
56270;BME280;42176;43.240;27.880;2023-07-08T04:39:04;99835.78;;;22.02;100.00
56270;BME280;42176;43.240;27.880;2023-07-08T04:41:31;99842.09;;;21.90;100.00
56270;BME280;42176;43.240;27.880;2023-07-08T04:43:57;99845.13;;;21.85;100.00
56270;BME280;42176;43.240;27.880;2023-07-08T04:48:56;99840.31;;;21.78;100.00
56270;BME280;42176;43.240;27.880;2023-07-08T04:51:25;99844.41;;;21.70;100.00
56270;BME280;42176;43.240;27.880;2023-07-08T04:53:51;99849.19;;;21.67;100.00
56270;BME280;42176;43.240;27.880;2023-07-08T04:56:16;99847.22;;;21.56;100.00
56270;BME280;42176;43.240;27.880;2023-07-08T04:58:42;99859.97;;;21.67;100.00
56270;BME280;42176;43.240;27.880;2023-07-08T05:01:07;99833.47;;;21.48;100.00
56270;BME280;42176;43.240;27.880;2023-07-08T05:03:33;99863.00;;;21.49;100.00
56270;BME280;42176;43.240;27.880;2023-07-08T05:05:58;99859.53;;;21.47;100.00
56270;BME280;42176;43.240;27.880;2023-07-08T05:08:24;99861.91;;;21.52;100.00
56270;BME280;42176;43.240;27.880;2023-07-08T05:10:49;99839.34;;;21.53;100.00
56270;BME280;42176;43.240;27.880;2023-07-08T05:13:15;99850.06;;;21.41;100.00
56270;BME280;42176;43.240;27.880;2023-07-08T05:15:40;99830.00;;;21.45;100.00
56270;BME280;42176;43.240;27.880;2023-07-08T05:18:06;99861.06;;;21.51;100.00
56270;BME280;42176;43.240;27.880;2023-07-08T05:20:31;99835.69;;;21.54;100.00
56270;BME280;42176;43.240;27.880;2023-07-08T05:22:58;99841.56;;;21.48;100.00
56270;BME280;42176;43.240;27.880;2023-07-08T05:25:23;99844.00;;;21.51;100.00
56270;BME280;42176;43.240;27.880;2023-07-08T05:27:50;99816.59;;;21.57;100.00
56270;BME280;42176;43.240;27.880;2023-07-08T05:30:17;99851.13;;;21.52;100.00
56270;BME280;42176;43.240;27.880;2023-07-08T05:32:45;99844.31;;;21.59;100.00
56270;BME280;42176;43.240;27.880;2023-07-08T05:35:10;99831.91;;;21.69;100.00
56270;BME280;42176;43.240;27.880;2023-07-08T05:37:36;99850.84;;;21.81;100.00
56270;BME280;42176;43.240;27.880;2023-07-08T05:40:01;99829.53;;;21.78;100.00
56270;BME280;42176;43.240;27.880;2023-07-08T05:42:29;99846.38;;;21.93;100.00
56270;BME280;42176;43.240;27.880;2023-07-08T05:44:55;99843.13;;;22.00;99.04
56270;BME280;42176;43.240;27.880;2023-07-08T05:47:21;99842.53;;;22.08;98.38
56270;BME280;42176;43.240;27.880;2023-07-08T05:49:47;99857.41;;;22.14;98.85
56270;BME280;42176;43.240;27.880;2023-07-08T05:52:13;99847.28;;;22.17;97.89
56270;BME280;42176;43.240;27.880;2023-07-08T05:54:39;99845.81;;;22.25;96.22
56270;BME280;42176;43.240;27.880;2023-07-08T05:57:07;99854.13;;;22.21;94.67
56270;BME280;42176;43.240;27.880;2023-07-08T05:59:34;99820.56;;;22.37;93.60
56270;BME280;42176;43.240;27.880;2023-07-08T06:02:00;99798.09;;;22.49;92.28
56270;BME280;42176;43.240;27.880;2023-07-08T06:04:27;99841.19;;;22.62;91.53
56270;BME280;42176;43.240;27.880;2023-07-08T06:06:52;99837.53;;;22.75;89.69
56270;BME280;42176;43.240;27.880;2023-07-08T06:09:18;99840.75;;;22.80;90.50
56270;BME280;42176;43.240;27.880;2023-07-08T06:11:43;99842.59;;;22.91;88.50
56270;BME280;42176;43.240;27.880;2023-07-08T06:14:09;99830.06;;;22.78;88.39
56270;BME280;42176;43.240;27.880;2023-07-08T06:16:34;99813.78;;;22.56;89.00
56270;BME280;42176;43.240;27.880;2023-07-08T06:19:00;99836.38;;;22.55;89.53
56270;BME280;42176;43.240;27.880;2023-07-08T06:21:26;99840.88;;;22.43;90.79
56270;BME280;42176;43.240;27.880;2023-07-08T06:23:51;99838.09;;;22.31;90.69
56270;BME280;42176;43.240;27.880;2023-07-08T06:26:17;99830.75;;;22.33;91.11
56270;BME280;42176;43.240;27.880;2023-07-08T06:28:42;99851.97;;;22.27;91.18
56270;BME280;42176;43.240;27.880;2023-07-08T06:31:08;99839.59;;;22.35;91.36
56270;BME280;42176;43.240;27.880;2023-07-08T06:33:33;99835.25;;;22.46;90.96
56270;BME280;42176;43.240;27.880;2023-07-08T06:35:59;99845.09;;;22.58;89.80
56270;BME280;42176;43.240;27.880;2023-07-08T06:38:24;99827.69;;;22.74;88.80
56270;BME280;42176;43.240;27.880;2023-07-08T06:40:49;99842.72;;;22.89;88.08
56270;BME280;42176;43.240;27.880;2023-07-08T06:43:15;99832.31;;;22.96;86.64
56270;BME280;42176;43.240;27.880;2023-07-08T06:45:41;99839.81;;;23.04;85.38
56270;BME280;42176;43.240;27.880;2023-07-08T06:48:06;99827.84;;;22.84;85.31
56270;BME280;42176;43.240;27.880;2023-07-08T06:50:32;99845.44;;;23.01;85.79
56270;BME280;42176;43.240;27.880;2023-07-08T06:52:58;99843.22;;;23.06;85.56
56270;BME280;42176;43.240;27.880;2023-07-08T06:55:23;99827.63;;;23.09;86.12
56270;BME280;42176;43.240;27.880;2023-07-08T06:57:49;99836.59;;;23.10;85.87
56270;BME280;42176;43.240;27.880;2023-07-08T07:00:14;99833.19;;;23.19;85.91
56270;BME280;42176;43.240;27.880;2023-07-08T07:02:40;99843.50;;;23.25;85.67
56270;BME280;42176;43.240;27.880;2023-07-08T07:05:06;99842.75;;;23.12;86.74
56270;BME280;42176;43.240;27.880;2023-07-08T07:07:31;99846.66;;;23.08;87.85
56270;BME280;42176;43.240;27.880;2023-07-08T07:09:57;99840.78;;;23.14;86.43
56270;BME280;42176;43.240;27.880;2023-07-08T07:12:24;99854.34;;;23.25;86.15
56270;BME280;42176;43.240;27.880;2023-07-08T07:14:49;99851.63;;;23.37;85.71
56270;BME280;42176;43.240;27.880;2023-07-08T07:17:18;99813.63;;;23.04;87.83
56270;BME280;42176;43.240;27.880;2023-07-08T07:19:44;99835.84;;;22.96;88.22
56270;BME280;42176;43.240;27.880;2023-07-08T07:22:09;99851.22;;;23.07;88.98
56270;BME280;42176;43.240;27.880;2023-07-08T07:24:34;99862.94;;;23.31;88.31
56270;BME280;42176;43.240;27.880;2023-07-08T07:27:00;99875.22;;;23.57;87.07
56270;BME280;42176;43.240;27.880;2023-07-08T07:29:26;99857.03;;;23.60;86.59
56270;BME280;42176;43.240;27.880;2023-07-08T07:31:51;99875.72;;;23.63;86.09
56270;BME280;42176;43.240;27.880;2023-07-08T07:34:17;99877.19;;;23.55;87.49
56270;BME280;42176;43.240;27.880;2023-07-08T07:36:42;99868.34;;;23.65;87.07
56270;BME280;42176;43.240;27.880;2023-07-08T07:39:08;99882.13;;;23.62;88.01
56270;BME280;42176;43.240;27.880;2023-07-08T07:41:33;99896.38;;;23.41;87.36
56270;BME280;42176;43.240;27.880;2023-07-08T07:43:59;99896.59;;;23.38;86.78
56270;BME280;42176;43.240;27.880;2023-07-08T07:46:24;99876.69;;;23.39;83.07
56270;BME280;42176;43.240;27.880;2023-07-08T07:48:50;99883.56;;;23.20;83.14
56270;BME280;42176;43.240;27.880;2023-07-08T07:51:16;99876.72;;;23.50;79.52
56270;BME280;42176;43.240;27.880;2023-07-08T07:53:41;99875.63;;;23.41;77.93
56270;BME280;42176;43.240;27.880;2023-07-08T07:56:07;99870.97;;;24.10;74.55
56270;BME280;42176;43.240;27.880;2023-07-08T07:58:33;99868.59;;;25.03;68.63
56270;BME280;42176;43.240;27.880;2023-07-08T08:00:59;99856.38;;;24.34;69.84
56270;BME280;42176;43.240;27.880;2023-07-08T08:03:24;99860.63;;;24.15;71.16
56270;BME280;42176;43.240;27.880;2023-07-08T08:05:50;99851.31;;;23.85;73.89
56270;BME280;42176;43.240;27.880;2023-07-08T08:08:16;99852.78;;;23.90;73.34
56270;BME280;42176;43.240;27.880;2023-07-08T08:10:44;99871.66;;;23.68;74.79
56270;BME280;42176;43.240;27.880;2023-07-08T08:13:10;99853.09;;;23.64;75.84
56270;BME280;42176;43.240;27.880;2023-07-08T08:15:36;99859.47;;;23.74;76.63
56270;BME280;42176;43.240;27.880;2023-07-08T08:18:02;99846.44;;;23.79;76.26
56270;BME280;42176;43.240;27.880;2023-07-08T08:20:28;99847.13;;;23.93;76.12
56270;BME280;42176;43.240;27.880;2023-07-08T08:22:54;99864.94;;;24.07;75.18
56270;BME280;42176;43.240;27.880;2023-07-08T08:25:21;99861.53;;;24.05;74.51
56270;BME280;42176;43.240;27.880;2023-07-08T08:27:47;99855.38;;;24.02;74.76
56270;BME280;42176;43.240;27.880;2023-07-08T08:30:12;99872.19;;;24.17;74.60
56270;BME280;42176;43.240;27.880;2023-07-08T08:32:38;99886.28;;;24.32;73.91
56270;BME280;42176;43.240;27.880;2023-07-08T08:35:04;99879.44;;;24.50;72.72
56270;BME280;42176;43.240;27.880;2023-07-08T08:37:30;99899.25;;;24.83;71.16
56270;BME280;42176;43.240;27.880;2023-07-08T08:39:56;99891.94;;;24.73;70.45
56270;BME280;42176;43.240;27.880;2023-07-08T08:42:32;99885.53;;;24.74;69.84
56270;BME280;42176;43.240;27.880;2023-07-08T08:44:59;99890.69;;;24.66;69.41
56270;BME280;42176;43.240;27.880;2023-07-08T08:47:37;99905.22;;;24.65;69.18
56270;BME280;42176;43.240;27.880;2023-07-08T08:52:54;99900.91;;;24.41;67.90
56270;BME280;42176;43.240;27.880;2023-07-08T08:55:21;99918.66;;;24.34;68.66
56270;BME280;42176;43.240;27.880;2023-07-08T09:00:25;99916.91;;;24.44;66.05
56270;BME280;42176;43.240;27.880;2023-07-08T09:03:06;99936.91;;;24.65;65.46
56270;BME280;42176;43.240;27.880;2023-07-08T09:05:34;99924.56;;;24.72;65.55
56270;BME280;42176;43.240;27.880;2023-07-08T09:08:20;99940.72;;;24.95;65.81
56270;BME280;42176;43.240;27.880;2023-07-08T09:13:22;99934.66;;;24.81;65.47
56270;BME280;42176;43.240;27.880;2023-07-08T09:15:57;99941.13;;;24.90;65.08
56270;BME280;42176;43.240;27.880;2023-07-08T09:18:30;99941.72;;;25.15;63.74
56270;BME280;42176;43.240;27.880;2023-07-08T09:20:58;99935.78;;;25.21;62.03
56270;BME280;42176;43.240;27.880;2023-07-08T09:23:30;99952.31;;;25.18;62.10
56270;BME280;42176;43.240;27.880;2023-07-08T09:26:12;99949.50;;;25.29;61.38
56270;BME280;42176;43.240;27.880;2023-07-08T09:28:43;99937.53;;;25.32;61.15
56270;BME280;42176;43.240;27.880;2023-07-08T09:31:28;99931.34;;;25.20;61.62
56270;BME280;42176;43.240;27.880;2023-07-08T09:34:11;99952.09;;;25.09;62.40
56270;BME280;42176;43.240;27.880;2023-07-08T09:36:42;99950.03;;;25.02;62.46
56270;BME280;42176;43.240;27.880;2023-07-08T09:39:16;99958.78;;;25.05;62.05
56270;BME280;42176;43.240;27.880;2023-07-08T09:41:45;99954.94;;;24.87;62.13
56270;BME280;42176;43.240;27.880;2023-07-08T09:44:24;99949.53;;;24.87;62.75
56270;BME280;42176;43.240;27.880;2023-07-08T09:46:56;99941.94;;;24.69;62.66
56270;BME280;42176;43.240;27.880;2023-07-08T09:49:29;99938.94;;;24.84;62.29
56270;BME280;42176;43.240;27.880;2023-07-08T09:51:56;99926.13;;;24.86;61.08
56270;BME280;42176;43.240;27.880;2023-07-08T09:54:23;99939.59;;;24.97;61.99
56270;BME280;42176;43.240;27.880;2023-07-08T09:59:19;99945.88;;;25.19;61.24
56270;BME280;42176;43.240;27.880;2023-07-08T10:01:47;99947.00;;;25.37;60.48
56270;BME280;42176;43.240;27.880;2023-07-08T10:04:12;99955.09;;;25.49;60.49
56270;BME280;42176;43.240;27.880;2023-07-08T10:06:38;99943.25;;;25.50;60.17
56270;BME280;42176;43.240;27.880;2023-07-08T10:09:08;99959.78;;;25.47;59.84
56270;BME280;42176;43.240;27.880;2023-07-08T10:12:00;99947.72;;;25.39;59.15
56270;BME280;42176;43.240;27.880;2023-07-08T10:14:34;99957.06;;;25.47;58.72
56270;BME280;42176;43.240;27.880;2023-07-08T10:17:02;99953.63;;;25.45;58.35
56270;BME280;42176;43.240;27.880;2023-07-08T10:19:28;99938.81;;;25.49;58.21
56270;BME280;42176;43.240;27.880;2023-07-08T10:21:55;99929.00;;;25.36;57.90
56270;BME280;42176;43.240;27.880;2023-07-08T10:27:39;99948.53;;;25.09;58.67
56270;BME280;42176;43.240;27.880;2023-07-08T10:33:13;99963.53;;;25.34;58.42
56270;BME280;42176;43.240;27.880;2023-07-08T10:35:53;99957.34;;;25.44;57.96
56270;BME280;42176;43.240;27.880;2023-07-08T10:41:22;99963.00;;;25.41;58.13
56270;BME280;42176;43.240;27.880;2023-07-08T10:49:39;99958.09;;;24.92;60.33
56270;BME280;42176;43.240;27.880;2023-07-08T10:55:26;99940.28;;;24.45;61.76
56270;BME280;42176;43.240;27.880;2023-07-08T10:58:20;99950.31;;;24.66;62.23
56270;BME280;42176;43.240;27.880;2023-07-08T11:01:13;99949.09;;;24.70;61.40
56270;BME280;42176;43.240;27.880;2023-07-08T11:07:03;99950.66;;;24.40;62.71
56270;BME280;42176;43.240;27.880;2023-07-08T11:12:56;99984.13;;;24.51;63.74
56270;BME280;42176;43.240;27.880;2023-07-08T11:19:41;99947.41;;;24.46;62.54
56270;BME280;42176;43.240;27.880;2023-07-08T11:21:49;99964.59;;;24.68;62.29
56270;BME280;42176;43.240;27.880;2023-07-08T11:26:32;99941.31;;;24.33;62.56
56270;BME280;42176;43.240;27.880;2023-07-08T11:28:33;99932.19;;;24.34;62.40
56270;BME280;42176;43.240;27.880;2023-07-08T11:30:34;99935.84;;;24.56;62.09
56270;BME280;42176;43.240;27.880;2023-07-08T11:32:41;99934.38;;;24.52;62.04
56270;BME280;42176;43.240;27.880;2023-07-08T11:34:46;99953.56;;;24.48;62.53
56270;BME280;42176;43.240;27.880;2023-07-08T11:36:48;99956.03;;;24.52;62.05
56270;BME280;42176;43.240;27.880;2023-07-08T11:38:55;99947.84;;;24.30;63.10
56270;BME280;42176;43.240;27.880;2023-07-08T11:43:04;99957.81;;;24.41;62.77
56270;BME280;42176;43.240;27.880;2023-07-08T11:45:31;99955.25;;;24.61;61.92
56270;BME280;42176;43.240;27.880;2023-07-08T11:47:39;99923.00;;;24.58;61.95
56270;BME280;42176;43.240;27.880;2023-07-08T11:49:41;99917.06;;;24.64;60.92
56270;BME280;42176;43.240;27.880;2023-07-08T11:51:44;99946.41;;;24.59;61.28
56270;BME280;42176;43.240;27.880;2023-07-08T11:53:48;99910.72;;;24.54;61.06
56270;BME280;42176;43.240;27.880;2023-07-08T11:55:59;99935.16;;;24.75;61.64
56270;BME280;42176;43.240;27.880;2023-07-08T11:58:00;99947.06;;;25.05;60.01
56270;BME280;42176;43.240;27.880;2023-07-08T12:00:29;99946.84;;;25.39;59.48
56270;BME280;42176;43.240;27.880;2023-07-08T12:02:43;99939.06;;;25.46;57.52
56270;BME280;42176;43.240;27.880;2023-07-08T12:05:00;99939.69;;;25.59;57.47
56270;BME280;42176;43.240;27.880;2023-07-08T12:07:20;99943.09;;;25.51;56.83
56270;BME280;42176;43.240;27.880;2023-07-08T12:09:35;99932.56;;;25.58;56.80
56270;BME280;42176;43.240;27.880;2023-07-08T12:11:39;99924.69;;;25.34;56.66
56270;BME280;42176;43.240;27.880;2023-07-08T12:13:39;99931.19;;;25.21;56.79
56270;BME280;42176;43.240;27.880;2023-07-08T12:15:40;99930.53;;;25.08;57.09
56270;BME280;42176;43.240;27.880;2023-07-08T12:17:42;99918.97;;;24.85;58.16
56270;BME280;42176;43.240;27.880;2023-07-08T12:19:43;99950.44;;;24.97;58.77
56270;BME280;42176;43.240;27.880;2023-07-08T12:21:44;99959.19;;;25.22;58.12
56270;BME280;42176;43.240;27.880;2023-07-08T12:23:46;99933.84;;;25.12;57.54
56270;BME280;42176;43.240;27.880;2023-07-08T12:25:47;99959.72;;;25.16;57.68
56270;BME280;42176;43.240;27.880;2023-07-08T12:27:48;99963.81;;;25.31;57.02
56270;BME280;42176;43.240;27.880;2023-07-08T12:29:48;99948.06;;;25.25;55.37
56270;BME280;42176;43.240;27.880;2023-07-08T12:31:50;99903.91;;;25.13;54.87
56270;BME280;42176;43.240;27.880;2023-07-08T12:33:51;99946.66;;;25.31;54.91
56270;BME280;42176;43.240;27.880;2023-07-08T12:35:51;99958.91;;;25.46;54.35
56270;BME280;42176;43.240;27.880;2023-07-08T12:37:53;99968.41;;;25.41;54.41
56270;BME280;42176;43.240;27.880;2023-07-08T12:39:56;99969.81;;;25.14;54.07
56270;BME280;42176;43.240;27.880;2023-07-08T12:41:59;99947.94;;;25.05;54.03
56270;BME280;42176;43.240;27.880;2023-07-08T12:44:01;99964.47;;;25.02;53.97
56270;BME280;42176;43.240;27.880;2023-07-08T12:46:03;99950.91;;;25.02;54.27
56270;BME280;42176;43.240;27.880;2023-07-08T12:48:04;99947.47;;;25.00;54.09
56270;BME280;42176;43.240;27.880;2023-07-08T12:50:05;99945.34;;;25.04;53.78
56270;BME280;42176;43.240;27.880;2023-07-08T12:52:05;99958.25;;;25.12;53.66
56270;BME280;42176;43.240;27.880;2023-07-08T12:54:09;99947.41;;;25.12;53.56
56270;BME280;42176;43.240;27.880;2023-07-08T12:56:10;99952.63;;;25.03;53.64
56270;BME280;42176;43.240;27.880;2023-07-08T12:58:17;99940.66;;;24.85;53.70
56270;BME280;42176;43.240;27.880;2023-07-08T13:00:29;99947.66;;;25.08;53.63
56270;BME280;42176;43.240;27.880;2023-07-08T13:02:31;99960.22;;;25.09;54.21
56270;BME280;42176;43.240;27.880;2023-07-08T13:04:33;99965.94;;;25.06;54.29
56270;BME280;42176;43.240;27.880;2023-07-08T13:06:36;99973.84;;;24.98;54.79
56270;BME280;42176;43.240;27.880;2023-07-08T13:08:38;99977.06;;;24.92;54.79
56270;BME280;42176;43.240;27.880;2023-07-08T13:10:40;99974.66;;;24.89;54.69
56270;BME280;42176;43.240;27.880;2023-07-08T13:12:42;99962.09;;;24.88;55.22
56270;BME280;42176;43.240;27.880;2023-07-08T13:14:44;99967.69;;;24.75;55.20
56270;BME280;42176;43.240;27.880;2023-07-08T13:16:45;99980.63;;;24.71;55.06
56270;BME280;42176;43.240;27.880;2023-07-08T13:18:47;99969.81;;;24.60;55.50
56270;BME280;42176;43.240;27.880;2023-07-08T13:20:52;99970.81;;;24.47;55.96